sensor_id;sensor_type;location;lat;lon;timestamp;P1;durP1;ratioP1;P2;durP2;ratioP2
47413;SDS011;33163;0.000;0.000;2023-05-10T00:00:37;4.15;;;3.38;;
47413;SDS011;33163;0.000;0.000;2023-05-10T00:03:03;6.28;;;3.33;;
47413;SDS011;33163;0.000;0.000;2023-05-10T00:05:30;5.55;;;3.78;;
47413;SDS011;33163;0.000;0.000;2023-05-10T00:07:57;4.00;;;3.05;;
47413;SDS011;33163;0.000;0.000;2023-05-10T00:10:24;3.47;;;2.70;;
47413;SDS011;33163;0.000;0.000;2023-05-10T00:12:50;3.60;;;2.92;;
47413;SDS011;33163;0.000;0.000;2023-05-10T00:15:17;3.50;;;3.00;;
47413;SDS011;33163;0.000;0.000;2023-05-10T00:17:45;3.20;;;2.70;;
47413;SDS011;33163;0.000;0.000;2023-05-10T00:20:12;5.57;;;3.25;;
47413;SDS011;33163;0.000;0.000;2023-05-10T00:22:39;5.13;;;3.00;;
47413;SDS011;33163;0.000;0.000;2023-05-10T00:25:06;5.00;;;3.03;;
47413;SDS011;33163;0.000;0.000;2023-05-10T00:27:34;3.90;;;3.28;;
47413;SDS011;33163;0.000;0.000;2023-05-10T00:30:00;5.78;;;3.33;;
47413;SDS011;33163;0.000;0.000;2023-05-10T00:32:27;5.20;;;3.20;;
47413;SDS011;33163;0.000;0.000;2023-05-10T00:34:56;4.78;;;3.22;;
47413;SDS011;33163;0.000;0.000;2023-05-10T00:37:23;5.53;;;3.58;;
47413;SDS011;33163;0.000;0.000;2023-05-10T00:39:50;5.32;;;3.03;;
47413;SDS011;33163;0.000;0.000;2023-05-10T00:42:17;4.78;;;3.47;;
47413;SDS011;33163;0.000;0.000;2023-05-10T00:44:44;4.15;;;3.28;;
47413;SDS011;33163;0.000;0.000;2023-05-10T00:47:11;3.85;;;3.05;;
47413;SDS011;33163;0.000;0.000;2023-05-10T00:49:38;5.32;;;3.22;;
47413;SDS011;33163;0.000;0.000;2023-05-10T00:52:08;4.78;;;2.80;;
47413;SDS011;33163;0.000;0.000;2023-05-10T00:54:35;4.60;;;3.10;;
47413;SDS011;33163;0.000;0.000;2023-05-10T00:57:02;7.38;;;3.42;;
47413;SDS011;33163;0.000;0.000;2023-05-10T00:59:29;6.18;;;3.38;;
47413;SDS011;33163;0.000;0.000;2023-05-10T01:01:56;6.30;;;4.05;;
47413;SDS011;33163;0.000;0.000;2023-05-10T01:04:24;4.43;;;3.38;;
47413;SDS011;33163;0.000;0.000;2023-05-10T01:06:51;6.50;;;3.75;;
47413;SDS011;33163;0.000;0.000;2023-05-10T01:09:20;6.03;;;3.55;;
47413;SDS011;33163;0.000;0.000;2023-05-10T01:11:47;9.43;;;4.35;;
47413;SDS011;33163;0.000;0.000;2023-05-10T01:14:15;6.53;;;3.78;;
47413;SDS011;33163;0.000;0.000;2023-05-10T01:16:43;6.25;;;4.40;;
47413;SDS011;33163;0.000;0.000;2023-05-10T01:19:12;8.02;;;4.00;;
47413;SDS011;33163;0.000;0.000;2023-05-10T01:21:50;7.80;;;4.40;;
47413;SDS011;33163;0.000;0.000;2023-05-10T01:24:38;5.47;;;4.10;;
47413;SDS011;33163;0.000;0.000;2023-05-10T01:27:24;7.88;;;4.22;;
47413;SDS011;33163;0.000;0.000;2023-05-10T01:30:16;8.90;;;4.20;;
47413;SDS011;33163;0.000;0.000;2023-05-10T01:33:19;6.63;;;4.07;;
47413;SDS011;33163;0.000;0.000;2023-05-10T01:35:51;8.07;;;4.30;;
47413;SDS011;33163;0.000;0.000;2023-05-10T01:38:32;10.48;;;5.05;;
47413;SDS011;33163;0.000;0.000;2023-05-10T01:41:09;9.15;;;4.50;;
47413;SDS011;33163;0.000;0.000;2023-05-10T01:43:42;9.48;;;5.38;;
47413;SDS011;33163;0.000;0.000;2023-05-10T01:46:16;7.85;;;4.60;;
47413;SDS011;33163;0.000;0.000;2023-05-10T01:48:47;9.50;;;4.38;;
47413;SDS011;33163;0.000;0.000;2023-05-10T01:51:19;10.93;;;4.53;;
47413;SDS011;33163;0.000;0.000;2023-05-10T01:53:50;7.18;;;4.85;;
47413;SDS011;33163;0.000;0.000;2023-05-10T01:56:20;8.30;;;4.63;;
47413;SDS011;33163;0.000;0.000;2023-05-10T01:58:51;6.03;;;4.03;;
47413;SDS011;33163;0.000;0.000;2023-05-10T02:01:19;9.07;;;4.30;;
47413;SDS011;33163;0.000;0.000;2023-05-10T02:03:48;8.20;;;4.50;;
47413;SDS011;33163;0.000;0.000;2023-05-10T02:06:18;7.35;;;4.63;;
47413;SDS011;33163;0.000;0.000;2023-05-10T02:08:46;11.00;;;4.60;;
47413;SDS011;33163;0.000;0.000;2023-05-10T02:11:15;8.35;;;5.28;;
47413;SDS011;33163;0.000;0.000;2023-05-10T02:13:46;7.80;;;4.65;;
47413;SDS011;33163;0.000;0.000;2023-05-10T02:16:14;10.63;;;4.93;;
47413;SDS011;33163;0.000;0.000;2023-05-10T02:18:42;10.20;;;5.10;;
47413;SDS011;33163;0.000;0.000;2023-05-10T02:21:11;11.57;;;5.25;;
47413;SDS011;33163;0.000;0.000;2023-05-10T02:23:41;10.73;;;4.60;;
47413;SDS011;33163;0.000;0.000;2023-05-10T02:26:09;10.32;;;5.53;;
47413;SDS011;33163;0.000;0.000;2023-05-10T02:28:38;8.48;;;4.85;;
47413;SDS011;33163;0.000;0.000;2023-05-10T02:31:06;10.38;;;4.97;;
47413;SDS011;33163;0.000;0.000;2023-05-10T02:33:34;9.25;;;5.30;;
47413;SDS011;33163;0.000;0.000;2023-05-10T02:36:02;8.70;;;5.57;;
47413;SDS011;33163;0.000;0.000;2023-05-10T02:38:31;7.97;;;5.07;;
47413;SDS011;33163;0.000;0.000;2023-05-10T02:40:59;8.75;;;5.65;;
47413;SDS011;33163;0.000;0.000;2023-05-10T02:43:27;8.35;;;5.35;;
47413;SDS011;33163;0.000;0.000;2023-05-10T02:45:56;9.02;;;5.10;;
47413;SDS011;33163;0.000;0.000;2023-05-10T02:48:23;10.48;;;5.55;;
47413;SDS011;33163;0.000;0.000;2023-05-10T02:50:50;10.82;;;5.35;;
47413;SDS011;33163;0.000;0.000;2023-05-10T02:53:22;7.63;;;4.72;;
47413;SDS011;33163;0.000;0.000;2023-05-10T02:55:57;8.90;;;4.82;;
47413;SDS011;33163;0.000;0.000;2023-05-10T02:58:28;9.57;;;4.55;;
47413;SDS011;33163;0.000;0.000;2023-05-10T03:00:55;6.60;;;4.75;;
47413;SDS011;33163;0.000;0.000;2023-05-10T03:03:22;12.60;;;5.35;;
47413;SDS011;33163;0.000;0.000;2023-05-10T03:05:48;9.30;;;5.07;;
47413;SDS011;33163;0.000;0.000;2023-05-10T03:08:15;11.55;;;5.88;;
47413;SDS011;33163;0.000;0.000;2023-05-10T03:10:45;8.73;;;5.25;;
47413;SDS011;33163;0.000;0.000;2023-05-10T03:13:21;7.78;;;4.75;;
47413;SDS011;33163;0.000;0.000;2023-05-10T03:15:58;11.30;;;5.32;;
47413;SDS011;33163;0.000;0.000;2023-05-10T03:18:30;9.02;;;5.18;;
47413;SDS011;33163;0.000;0.000;2023-05-10T03:21:03;11.85;;;5.50;;
47413;SDS011;33163;0.000;0.000;2023-05-10T03:23:34;11.70;;;5.38;;
47413;SDS011;33163;0.000;0.000;2023-05-10T03:26:05;13.60;;;4.75;;
47413;SDS011;33163;0.000;0.000;2023-05-10T03:28:34;9.15;;;4.82;;
47413;SDS011;33163;0.000;0.000;2023-05-10T03:31:02;8.15;;;4.63;;
47413;SDS011;33163;0.000;0.000;2023-05-10T03:33:31;8.27;;;5.13;;
47413;SDS011;33163;0.000;0.000;2023-05-10T03:35:58;8.70;;;4.82;;
47413;SDS011;33163;0.000;0.000;2023-05-10T03:38:25;9.23;;;5.28;;
47413;SDS011;33163;0.000;0.000;2023-05-10T03:40:52;10.73;;;4.88;;
47413;SDS011;33163;0.000;0.000;2023-05-10T03:43:18;11.43;;;5.85;;
47413;SDS011;33163;0.000;0.000;2023-05-10T03:45:46;9.40;;;5.43;;
47413;SDS011;33163;0.000;0.000;2023-05-10T03:48:13;11.55;;;5.38;;
47413;SDS011;33163;0.000;0.000;2023-05-10T03:50:40;10.25;;;5.60;;
47413;SDS011;33163;0.000;0.000;2023-05-10T03:53:07;9.60;;;5.90;;
47413;SDS011;33163;0.000;0.000;2023-05-10T03:55:34;12.07;;;6.95;;
47413;SDS011;33163;0.000;0.000;2023-05-10T03:58:01;11.85;;;6.60;;
47413;SDS011;33163;0.000;0.000;2023-05-10T04:00:28;9.93;;;6.05;;
47413;SDS011;33163;0.000;0.000;2023-05-10T04:02:56;13.25;;;6.45;;
47413;SDS011;33163;0.000;0.000;2023-05-10T04:05:23;7.90;;;5.30;;
47413;SDS011;33163;0.000;0.000;2023-05-10T04:07:49;8.98;;;5.78;;
47413;SDS011;33163;0.000;0.000;2023-05-10T04:10:16;8.20;;;5.18;;
47413;SDS011;33163;0.000;0.000;2023-05-10T04:12:43;13.63;;;6.65;;
47413;SDS011;33163;0.000;0.000;2023-05-10T04:15:10;14.32;;;5.90;;
47413;SDS011;33163;0.000;0.000;2023-05-10T04:17:37;10.70;;;6.47;;
47413;SDS011;33163;0.000;0.000;2023-05-10T04:20:05;10.13;;;7.38;;
47413;SDS011;33163;0.000;0.000;2023-05-10T04:22:33;11.65;;;6.15;;
47413;SDS011;33163;0.000;0.000;2023-05-10T04:25:00;10.32;;;5.50;;
47413;SDS011;33163;0.000;0.000;2023-05-10T04:27:26;8.48;;;5.55;;
47413;SDS011;33163;0.000;0.000;2023-05-10T04:29:53;9.82;;;6.40;;
47413;SDS011;33163;0.000;0.000;2023-05-10T04:32:20;6.75;;;5.03;;
47413;SDS011;33163;0.000;0.000;2023-05-10T04:34:47;11.18;;;6.18;;
47413;SDS011;33163;0.000;0.000;2023-05-10T04:37:15;9.07;;;5.20;;
47413;SDS011;33163;0.000;0.000;2023-05-10T04:39:42;10.18;;;5.70;;
47413;SDS011;33163;0.000;0.000;2023-05-10T04:42:08;9.07;;;5.30;;
47413;SDS011;33163;0.000;0.000;2023-05-10T04:44:36;11.10;;;6.05;;
47413;SDS011;33163;0.000;0.000;2023-05-10T04:47:03;8.75;;;5.57;;
47413;SDS011;33163;0.000;0.000;2023-05-10T04:49:30;7.15;;;4.28;;
47413;SDS011;33163;0.000;0.000;2023-05-10T04:51:57;6.60;;;4.47;;
47413;SDS011;33163;0.000;0.000;2023-05-10T04:54:25;9.27;;;4.95;;
47413;SDS011;33163;0.000;0.000;2023-05-10T04:56:52;6.65;;;4.57;;
47413;SDS011;33163;0.000;0.000;2023-05-10T04:59:18;6.40;;;4.45;;
47413;SDS011;33163;0.000;0.000;2023-05-10T05:01:45;10.10;;;4.47;;
47413;SDS011;33163;0.000;0.000;2023-05-10T05:04:12;7.45;;;4.10;;
47413;SDS011;33163;0.000;0.000;2023-05-10T05:06:39;7.30;;;3.90;;
47413;SDS011;33163;0.000;0.000;2023-05-10T05:09:06;6.00;;;3.65;;
47413;SDS011;33163;0.000;0.000;2023-05-10T05:11:34;5.72;;;3.00;;
47413;SDS011;33163;0.000;0.000;2023-05-10T05:14:01;5.85;;;3.50;;
47413;SDS011;33163;0.000;0.000;2023-05-10T05:16:29;5.50;;;3.60;;
47413;SDS011;33163;0.000;0.000;2023-05-10T05:18:56;5.10;;;3.22;;
47413;SDS011;33163;0.000;0.000;2023-05-10T05:21:23;5.75;;;3.28;;
47413;SDS011;33163;0.000;0.000;2023-05-10T05:23:51;3.70;;;2.95;;
47413;SDS011;33163;0.000;0.000;2023-05-10T05:26:18;7.18;;;3.33;;
47413;SDS011;33163;0.000;0.000;2023-05-10T05:28:46;4.53;;;2.83;;
47413;SDS011;33163;0.000;0.000;2023-05-10T05:31:13;5.18;;;2.72;;
47413;SDS011;33163;0.000;0.000;2023-05-10T05:33:40;3.20;;;2.55;;
47413;SDS011;33163;0.000;0.000;2023-05-10T05:36:07;4.68;;;2.97;;
47413;SDS011;33163;0.000;0.000;2023-05-10T05:38:34;3.45;;;2.50;;
47413;SDS011;33163;0.000;0.000;2023-05-10T05:41:01;4.53;;;2.70;;
47413;SDS011;33163;0.000;0.000;2023-05-10T05:43:28;3.25;;;2.75;;
47413;SDS011;33163;0.000;0.000;2023-05-10T05:45:56;3.83;;;2.97;;
47413;SDS011;33163;0.000;0.000;2023-05-10T05:48:23;6.85;;;2.58;;
47413;SDS011;33163;0.000;0.000;2023-05-10T05:50:53;2.95;;;2.25;;
47413;SDS011;33163;0.000;0.000;2023-05-10T05:53:21;3.10;;;2.20;;
47413;SDS011;33163;0.000;0.000;2023-05-10T05:55:51;4.78;;;2.22;;
47413;SDS011;33163;0.000;0.000;2023-05-10T05:58:19;4.45;;;2.47;;
47413;SDS011;33163;0.000;0.000;2023-05-10T06:00:45;7.40;;;2.80;;
47413;SDS011;33163;0.000;0.000;2023-05-10T06:03:13;3.40;;;2.40;;
47413;SDS011;33163;0.000;0.000;2023-05-10T06:05:40;4.65;;;2.00;;
47413;SDS011;33163;0.000;0.000;2023-05-10T06:08:07;3.95;;;2.30;;
47413;SDS011;33163;0.000;0.000;2023-05-10T06:10:34;2.25;;;2.00;;
47413;SDS011;33163;0.000;0.000;2023-05-10T06:13:00;3.53;;;2.03;;
47413;SDS011;33163;0.000;0.000;2023-05-10T06:15:28;2.72;;;2.20;;
47413;SDS011;33163;0.000;0.000;2023-05-10T06:17:55;5.85;;;2.40;;
47413;SDS011;33163;0.000;0.000;2023-05-10T06:20:23;2.92;;;2.13;;
47413;SDS011;33163;0.000;0.000;2023-05-10T06:22:50;4.15;;;2.00;;
47413;SDS011;33163;0.000;0.000;2023-05-10T06:25:16;3.35;;;2.35;;
47413;SDS011;33163;0.000;0.000;2023-05-10T06:27:43;7.07;;;2.63;;
47413;SDS011;33163;0.000;0.000;2023-05-10T06:30:10;2.58;;;2.38;;
47413;SDS011;33163;0.000;0.000;2023-05-10T06:32:39;3.58;;;2.15;;
47413;SDS011;33163;0.000;0.000;2023-05-10T06:35:09;4.72;;;2.40;;
47413;SDS011;33163;0.000;0.000;2023-05-10T06:37:37;5.00;;;2.83;;
47413;SDS011;33163;0.000;0.000;2023-05-10T06:40:04;6.75;;;2.60;;
47413;SDS011;33163;0.000;0.000;2023-05-10T06:42:32;5.18;;;2.42;;
47413;SDS011;33163;0.000;0.000;2023-05-10T06:44:59;6.13;;;2.55;;
47413;SDS011;33163;0.000;0.000;2023-05-10T06:47:25;6.72;;;2.83;;
47413;SDS011;33163;0.000;0.000;2023-05-10T06:49:52;3.75;;;2.30;;
47413;SDS011;33163;0.000;0.000;2023-05-10T06:52:19;6.85;;;2.33;;
47413;SDS011;33163;0.000;0.000;2023-05-10T06:54:47;3.50;;;2.15;;
47413;SDS011;33163;0.000;0.000;2023-05-10T06:57:14;3.25;;;1.92;;
47413;SDS011;33163;0.000;0.000;2023-05-10T06:59:41;4.57;;;2.53;;
47413;SDS011;33163;0.000;0.000;2023-05-10T07:02:08;7.80;;;2.63;;
47413;SDS011;33163;0.000;0.000;2023-05-10T07:04:35;6.82;;;2.20;;
47413;SDS011;33163;0.000;0.000;2023-05-10T07:07:01;4.47;;;2.60;;
47413;SDS011;33163;0.000;0.000;2023-05-10T07:09:28;9.38;;;3.05;;
47413;SDS011;33163;0.000;0.000;2023-05-10T07:11:56;4.50;;;2.22;;
47413;SDS011;33163;0.000;0.000;2023-05-10T07:14:23;3.08;;;1.98;;
47413;SDS011;33163;0.000;0.000;2023-05-10T07:16:49;3.88;;;2.47;;
47413;SDS011;33163;0.000;0.000;2023-05-10T07:19:16;5.88;;;2.30;;
47413;SDS011;33163;0.000;0.000;2023-05-10T07:21:43;2.92;;;2.17;;
47413;SDS011;33163;0.000;0.000;2023-05-10T07:24:10;5.25;;;2.40;;
47413;SDS011;33163;0.000;0.000;2023-05-10T07:26:37;2.90;;;2.00;;
47413;SDS011;33163;0.000;0.000;2023-05-10T07:29:05;3.28;;;2.10;;
47413;SDS011;33163;0.000;0.000;2023-05-10T07:31:32;1.98;;;1.63;;
47413;SDS011;33163;0.000;0.000;2023-05-10T07:33:58;3.00;;;2.22;;
47413;SDS011;33163;0.000;0.000;2023-05-10T07:36:25;4.38;;;2.20;;
47413;SDS011;33163;0.000;0.000;2023-05-10T07:38:52;3.42;;;2.00;;
47413;SDS011;33163;0.000;0.000;2023-05-10T07:41:19;4.15;;;1.88;;
47413;SDS011;33163;0.000;0.000;2023-05-10T07:43:47;4.70;;;1.95;;
47413;SDS011;33163;0.000;0.000;2023-05-10T07:46:15;2.60;;;2.28;;
47413;SDS011;33163;0.000;0.000;2023-05-10T07:48:42;3.50;;;2.30;;
47413;SDS011;33163;0.000;0.000;2023-05-10T07:51:09;3.25;;;2.00;;
47413;SDS011;33163;0.000;0.000;2023-05-10T07:53:35;2.75;;;2.08;;
47413;SDS011;33163;0.000;0.000;2023-05-10T07:58:48;3.67;;;2.00;;
47413;SDS011;33163;0.000;0.000;2023-05-10T08:01:16;2.40;;;1.92;;
47413;SDS011;33163;0.000;0.000;2023-05-10T08:03:43;5.20;;;2.10;;
47413;SDS011;33163;0.000;0.000;2023-05-10T08:06:10;2.55;;;1.98;;
47413;SDS011;33163;0.000;0.000;2023-05-10T08:08:37;3.80;;;1.80;;
47413;SDS011;33163;0.000;0.000;2023-05-10T08:11:04;9.73;;;2.60;;
47413;SDS011;33163;0.000;0.000;2023-05-10T08:13:30;3.25;;;1.92;;
47413;SDS011;33163;0.000;0.000;2023-05-10T08:15:57;6.20;;;1.88;;
47413;SDS011;33163;0.000;0.000;2023-05-10T08:18:25;4.15;;;2.10;;
47413;SDS011;33163;0.000;0.000;2023-05-10T08:20:52;4.88;;;2.03;;
47413;SDS011;33163;0.000;0.000;2023-05-10T08:23:19;3.28;;;1.60;;
47413;SDS011;33163;0.000;0.000;2023-05-10T08:25:45;5.45;;;2.10;;
47413;SDS011;33163;0.000;0.000;2023-05-10T08:28:12;8.23;;;2.00;;
47413;SDS011;33163;0.000;0.000;2023-05-10T08:30:39;2.92;;;1.60;;
47413;SDS011;33163;0.000;0.000;2023-05-10T08:33:06;4.78;;;1.67;;
47413;SDS011;33163;0.000;0.000;2023-05-10T08:35:34;7.72;;;1.40;;
47413;SDS011;33163;0.000;0.000;2023-05-10T08:38:01;2.55;;;1.67;;
47413;SDS011;33163;0.000;0.000;2023-05-10T08:40:28;4.15;;;1.40;;
47413;SDS011;33163;0.000;0.000;2023-05-10T08:42:55;4.30;;;1.70;;
47413;SDS011;33163;0.000;0.000;2023-05-10T08:45:25;2.78;;;1.67;;
47413;SDS011;33163;0.000;0.000;2023-05-10T08:47:58;2.70;;;1.70;;
47413;SDS011;33163;0.000;0.000;2023-05-10T08:50:27;2.53;;;1.50;;
47413;SDS011;33163;0.000;0.000;2023-05-10T08:52:57;4.93;;;2.10;;
47413;SDS011;33163;0.000;0.000;2023-05-10T08:55:26;3.15;;;1.48;;
47413;SDS011;33163;0.000;0.000;2023-05-10T08:57:53;3.47;;;1.60;;
47413;SDS011;33163;0.000;0.000;2023-05-10T09:00:20;2.25;;;1.50;;
47413;SDS011;33163;0.000;0.000;2023-05-10T09:02:49;2.08;;;1.42;;
47413;SDS011;33163;0.000;0.000;2023-05-10T09:05:16;2.10;;;1.38;;
47413;SDS011;33163;0.000;0.000;2023-05-10T09:07:42;2.67;;;1.75;;
47413;SDS011;33163;0.000;0.000;2023-05-10T09:10:11;2.10;;;1.70;;
47413;SDS011;33163;0.000;0.000;2023-05-10T09:12:41;2.10;;;1.77;;
47413;SDS011;33163;0.000;0.000;2023-05-10T09:15:09;2.55;;;1.52;;
47413;SDS011;33163;0.000;0.000;2023-05-10T09:17:37;3.00;;;1.90;;
47413;SDS011;33163;0.000;0.000;2023-05-10T09:20:06;2.90;;;1.60;;
47413;SDS011;33163;0.000;0.000;2023-05-10T09:22:33;2.58;;;1.80;;
47413;SDS011;33163;0.000;0.000;2023-05-10T09:25:03;1.73;;;1.63;;
47413;SDS011;33163;0.000;0.000;2023-05-10T09:27:33;1.52;;;1.42;;
47413;SDS011;33163;0.000;0.000;2023-05-10T09:30:00;2.58;;;2.20;;
47413;SDS011;33163;0.000;0.000;2023-05-10T09:32:35;2.47;;;2.00;;
47413;SDS011;33163;0.000;0.000;2023-05-10T09:35:06;2.65;;;1.95;;
47413;SDS011;33163;0.000;0.000;2023-05-10T09:37:34;2.20;;;1.95;;
47413;SDS011;33163;0.000;0.000;2023-05-10T09:40:03;3.10;;;1.60;;
47413;SDS011;33163;0.000;0.000;2023-05-10T09:42:34;1.67;;;1.50;;
47413;SDS011;33163;0.000;0.000;2023-05-10T09:45:02;8.48;;;2.13;;
47413;SDS011;33163;0.000;0.000;2023-05-10T09:47:31;3.85;;;1.50;;
47413;SDS011;33163;0.000;0.000;2023-05-10T09:49:58;5.00;;;1.63;;
47413;SDS011;33163;0.000;0.000;2023-05-10T09:52:28;2.25;;;2.00;;
47413;SDS011;33163;0.000;0.000;2023-05-10T09:54:55;2.78;;;1.88;;
47413;SDS011;33163;0.000;0.000;2023-05-10T09:57:23;5.00;;;1.90;;
47413;SDS011;33163;0.000;0.000;2023-05-10T09:59:52;3.25;;;1.80;;
47413;SDS011;33163;0.000;0.000;2023-05-10T10:02:20;4.55;;;1.63;;
47413;SDS011;33163;0.000;0.000;2023-05-10T10:04:48;3.08;;;1.83;;
47413;SDS011;33163;0.000;0.000;2023-05-10T10:07:17;1.67;;;1.40;;
47413;SDS011;33163;0.000;0.000;2023-05-10T10:09:50;1.90;;;1.75;;
47413;SDS011;33163;0.000;0.000;2023-05-10T10:12:17;2.35;;;1.88;;
47413;SDS011;33163;0.000;0.000;2023-05-10T10:14:45;2.92;;;1.92;;
47413;SDS011;33163;0.000;0.000;2023-05-10T10:17:14;5.75;;;1.65;;
47413;SDS011;33163;0.000;0.000;2023-05-10T10:19:41;7.80;;;2.95;;
47413;SDS011;33163;0.000;0.000;2023-05-10T10:22:08;2.08;;;1.65;;
47413;SDS011;33163;0.000;0.000;2023-05-10T10:24:37;3.75;;;2.25;;
47413;SDS011;33163;0.000;0.000;2023-05-10T10:27:07;2.75;;;2.10;;
47413;SDS011;33163;0.000;0.000;2023-05-10T10:29:43;2.25;;;2.00;;
47413;SDS011;33163;0.000;0.000;2023-05-10T10:32:21;3.17;;;2.05;;
47413;SDS011;33163;0.000;0.000;2023-05-10T10:34:54;2.50;;;2.25;;
47413;SDS011;33163;0.000;0.000;2023-05-10T10:37:21;2.80;;;1.90;;
47413;SDS011;33163;0.000;0.000;2023-05-10T10:39:48;2.65;;;1.88;;
47413;SDS011;33163;0.000;0.000;2023-05-10T10:42:23;2.05;;;1.80;;
47413;SDS011;33163;0.000;0.000;2023-05-10T10:45:13;4.78;;;1.80;;
47413;SDS011;33163;0.000;0.000;2023-05-10T10:47:41;2.80;;;1.95;;
47413;SDS011;33163;0.000;0.000;2023-05-10T10:50:08;3.08;;;2.05;;
47413;SDS011;33163;0.000;0.000;2023-05-10T10:52:37;4.63;;;2.00;;
47413;SDS011;33163;0.000;0.000;2023-05-10T10:55:06;2.90;;;1.73;;
47413;SDS011;33163;0.000;0.000;2023-05-10T10:57:42;4.25;;;2.05;;
47413;SDS011;33163;0.000;0.000;2023-05-10T11:00:20;5.15;;;2.20;;
47413;SDS011;33163;0.000;0.000;2023-05-10T11:02:51;4.47;;;1.85;;
47413;SDS011;33163;0.000;0.000;2023-05-10T11:08:11;2.92;;;2.00;;
47413;SDS011;33163;0.000;0.000;2023-05-10T11:10:40;3.85;;;1.92;;
47413;SDS011;33163;0.000;0.000;2023-05-10T11:13:14;6.13;;;2.83;;
47413;SDS011;33163;0.000;0.000;2023-05-10T11:15:47;4.03;;;2.67;;
47413;SDS011;33163;0.000;0.000;2023-05-10T11:18:20;4.72;;;2.35;;
47413;SDS011;33163;0.000;0.000;2023-05-10T11:20:52;7.57;;;2.00;;
47413;SDS011;33163;0.000;0.000;2023-05-10T11:23:29;3.35;;;2.10;;
47413;SDS011;33163;0.000;0.000;2023-05-10T11:25:57;2.65;;;2.13;;
47413;SDS011;33163;0.000;0.000;2023-05-10T11:28:24;3.33;;;2.67;;
47413;SDS011;33163;0.000;0.000;2023-05-10T11:30:52;5.82;;;2.15;;
47413;SDS011;33163;0.000;0.000;2023-05-10T11:33:21;4.03;;;2.08;;
47413;SDS011;33163;0.000;0.000;2023-05-10T11:35:48;6.55;;;2.25;;
47413;SDS011;33163;0.000;0.000;2023-05-10T11:38:15;6.50;;;2.55;;
47413;SDS011;33163;0.000;0.000;2023-05-10T11:40:42;2.58;;;2.20;;
47413;SDS011;33163;0.000;0.000;2023-05-10T11:43:09;4.10;;;2.55;;
47413;SDS011;33163;0.000;0.000;2023-05-10T11:45:37;4.55;;;2.10;;
47413;SDS011;33163;0.000;0.000;2023-05-10T11:48:04;5.60;;;2.38;;
47413;SDS011;33163;0.000;0.000;2023-05-10T11:50:32;3.75;;;2.35;;
47413;SDS011;33163;0.000;0.000;2023-05-10T11:52:59;2.00;;;1.77;;
47413;SDS011;33163;0.000;0.000;2023-05-10T11:55:25;4.28;;;1.95;;
47413;SDS011;33163;0.000;0.000;2023-05-10T11:57:52;2.97;;;2.22;;
47413;SDS011;33163;0.000;0.000;2023-05-10T12:00:19;5.47;;;1.73;;
47413;SDS011;33163;0.000;0.000;2023-05-10T12:02:46;4.18;;;2.33;;
47413;SDS011;33163;0.000;0.000;2023-05-10T12:05:13;3.38;;;1.90;;
47413;SDS011;33163;0.000;0.000;2023-05-10T12:07:42;4.07;;;2.00;;
47413;SDS011;33163;0.000;0.000;2023-05-10T12:10:09;4.63;;;2.03;;
47413;SDS011;33163;0.000;0.000;2023-05-10T12:12:39;4.85;;;2.35;;
47413;SDS011;33163;0.000;0.000;2023-05-10T12:15:10;6.18;;;2.20;;
47413;SDS011;33163;0.000;0.000;2023-05-10T12:17:37;3.67;;;2.45;;
47413;SDS011;33163;0.000;0.000;2023-05-10T12:20:15;4.75;;;1.90;;
47413;SDS011;33163;0.000;0.000;2023-05-10T12:22:48;5.78;;;2.08;;
47413;SDS011;33163;0.000;0.000;2023-05-10T12:25:16;5.03;;;2.30;;
47413;SDS011;33163;0.000;0.000;2023-05-10T12:27:50;2.25;;;2.05;;
47413;SDS011;33163;0.000;0.000;2023-05-10T12:30:21;4.35;;;1.95;;
47413;SDS011;33163;0.000;0.000;2023-05-10T12:32:49;4.90;;;2.40;;
47413;SDS011;33163;0.000;0.000;2023-05-10T12:35:17;4.85;;;2.10;;
47413;SDS011;33163;0.000;0.000;2023-05-10T12:37:48;6.68;;;2.22;;
47413;SDS011;33163;0.000;0.000;2023-05-10T12:40:14;5.75;;;2.47;;
47413;SDS011;33163;0.000;0.000;2023-05-10T12:42:41;5.70;;;2.00;;
47413;SDS011;33163;0.000;0.000;2023-05-10T12:45:10;6.03;;;2.30;;
47413;SDS011;33163;0.000;0.000;2023-05-10T12:47:37;2.95;;;2.00;;
47413;SDS011;33163;0.000;0.000;2023-05-10T12:50:05;3.20;;;1.92;;
47413;SDS011;33163;0.000;0.000;2023-05-10T12:52:32;2.75;;;1.95;;
47413;SDS011;33163;0.000;0.000;2023-05-10T12:55:00;3.58;;;1.77;;
47413;SDS011;33163;0.000;0.000;2023-05-10T12:57:28;2.88;;;1.45;;
47413;SDS011;33163;0.000;0.000;2023-05-10T12:59:55;1.95;;;1.60;;
47413;SDS011;33163;0.000;0.000;2023-05-10T13:02:22;5.22;;;1.83;;
47413;SDS011;33163;0.000;0.000;2023-05-10T13:04:49;2.65;;;2.13;;
47413;SDS011;33163;0.000;0.000;2023-05-10T13:07:16;3.35;;;1.80;;
47413;SDS011;33163;0.000;0.000;2023-05-10T13:09:43;4.82;;;2.25;;
47413;SDS011;33163;0.000;0.000;2023-05-10T13:12:11;2.78;;;2.00;;
47413;SDS011;33163;0.000;0.000;2023-05-10T13:14:38;3.20;;;2.15;;
47413;SDS011;33163;0.000;0.000;2023-05-10T13:17:06;3.63;;;2.05;;
47413;SDS011;33163;0.000;0.000;2023-05-10T13:19:33;3.35;;;1.98;;
47413;SDS011;33163;0.000;0.000;2023-05-10T13:22:00;3.08;;;2.15;;
47413;SDS011;33163;0.000;0.000;2023-05-10T13:24:27;3.65;;;2.08;;
47413;SDS011;33163;0.000;0.000;2023-05-10T13:26:53;4.78;;;2.08;;
47413;SDS011;33163;0.000;0.000;2023-05-10T13:29:21;1.98;;;1.70;;
47413;SDS011;33163;0.000;0.000;2023-05-10T13:31:48;6.78;;;2.17;;
47413;SDS011;33163;0.000;0.000;2023-05-10T13:34:15;3.38;;;1.98;;
47413;SDS011;33163;0.000;0.000;2023-05-10T13:36:45;5.25;;;1.70;;
47413;SDS011;33163;0.000;0.000;2023-05-10T13:39:12;3.35;;;2.03;;
47413;SDS011;33163;0.000;0.000;2023-05-10T13:41:39;2.95;;;1.98;;
47413;SDS011;33163;0.000;0.000;2023-05-10T13:44:06;2.55;;;1.77;;
47413;SDS011;33163;0.000;0.000;2023-05-10T13:46:34;2.70;;;1.52;;
47413;SDS011;33163;0.000;0.000;2023-05-10T13:49:00;3.53;;;2.00;;
47413;SDS011;33163;0.000;0.000;2023-05-10T13:51:28;3.35;;;2.05;;
47413;SDS011;33163;0.000;0.000;2023-05-10T13:53:56;2.30;;;1.60;;
47413;SDS011;33163;0.000;0.000;2023-05-10T13:56:23;2.22;;;2.03;;
47413;SDS011;33163;0.000;0.000;2023-05-10T13:58:50;2.67;;;1.77;;
47413;SDS011;33163;0.000;0.000;2023-05-10T14:01:17;4.40;;;2.03;;
47413;SDS011;33163;0.000;0.000;2023-05-10T14:03:45;2.47;;;1.73;;
47413;SDS011;33163;0.000;0.000;2023-05-10T14:06:13;3.28;;;2.03;;
47413;SDS011;33163;0.000;0.000;2023-05-10T14:08:39;2.53;;;2.10;;
47413;SDS011;33163;0.000;0.000;2023-05-10T14:11:06;2.75;;;1.60;;
47413;SDS011;33163;0.000;0.000;2023-05-10T14:13:33;3.55;;;2.20;;
47413;SDS011;33163;0.000;0.000;2023-05-10T14:16:00;3.25;;;1.85;;
47413;SDS011;33163;0.000;0.000;2023-05-10T14:18:27;4.03;;;1.85;;
47413;SDS011;33163;0.000;0.000;2023-05-10T14:20:55;4.57;;;2.47;;
47413;SDS011;33163;0.000;0.000;2023-05-10T14:23:22;4.00;;;2.00;;
47413;SDS011;33163;0.000;0.000;2023-05-10T14:25:50;1.83;;;1.52;;
47413;SDS011;33163;0.000;0.000;2023-05-10T14:28:16;2.00;;;1.85;;
47413;SDS011;33163;0.000;0.000;2023-05-10T14:30:45;3.40;;;2.03;;
47413;SDS011;33163;0.000;0.000;2023-05-10T14:33:12;2.80;;;1.88;;
47413;SDS011;33163;0.000;0.000;2023-05-10T14:35:39;2.55;;;1.88;;
47413;SDS011;33163;0.000;0.000;2023-05-10T14:38:07;2.80;;;2.17;;
47413;SDS011;33163;0.000;0.000;2023-05-10T14:40:34;2.35;;;1.80;;
47413;SDS011;33163;0.000;0.000;2023-05-10T14:43:00;2.60;;;1.60;;
47413;SDS011;33163;0.000;0.000;2023-05-10T14:45:27;3.05;;;1.75;;
47413;SDS011;33163;0.000;0.000;2023-05-10T14:47:54;6.00;;;1.67;;
47413;SDS011;33163;0.000;0.000;2023-05-10T14:50:21;2.67;;;1.85;;
47413;SDS011;33163;0.000;0.000;2023-05-10T14:52:48;2.45;;;1.60;;
47413;SDS011;33163;0.000;0.000;2023-05-10T14:55:16;4.07;;;1.80;;
47413;SDS011;33163;0.000;0.000;2023-05-10T14:57:43;2.67;;;2.00;;
47413;SDS011;33163;0.000;0.000;2023-05-10T15:00:12;4.53;;;1.90;;
47413;SDS011;33163;0.000;0.000;2023-05-10T15:02:41;3.22;;;1.73;;
47413;SDS011;33163;0.000;0.000;2023-05-10T15:05:07;1.98;;;1.73;;
47413;SDS011;33163;0.000;0.000;2023-05-10T15:07:34;1.90;;;1.50;;
47413;SDS011;33163;0.000;0.000;2023-05-10T15:10:01;7.80;;;1.90;;
47413;SDS011;33163;0.000;0.000;2023-05-10T15:12:30;2.00;;;1.50;;